Timeline UpdatesTrip UpdatesNews PostsPvt PostsTravel TipsAdmin PostsConv PostsFollowed PostsChat RequestsBlog PostsPNR Posts

Disclaimer
Search
 
 
Sat Apr 19, 2014 17:48:42 ISTHomeTrainsΣChainsAtlasPNRForumGalleryNewsFAQTripsMembersLoginFeedback
No Recent News for this Train
Other Trains in the News **new
Latest...
.
Mon Aug 26, 2013 (09:43AM)
⇐ Return Journey: Train# 11027

11028/Chennai-Mumbai CST Mail

Jul 02 2013 (6:40PM)
Change Departure Station:
Change Arrival Station:
Post a Train Travel TipPost a Train Travel Tip **new
Post a Comment/Question/Picture/VideoPost a Comment/Question/Picture/Video
Pantry/Catering
✓ Pantry Car Avbl
✓ Catering Avbl
RSA - Rake Sharing
11041 Mumbai Chennai Express
Rake/Coach Composition
Loco >SLR >UR >RMS>A1 >B1 >S10 To > S6 >PC >S5 To >S1>UR >LDS >S11 (S11 From Solapur To Daund Junction )
Loco
MAS-GTL=> LGD WAP-4; GTL-PUNE=> GY WDM-3A; PUNE-CSTM=> KYN WCAM #2P/3
News    PNR    Forum    Time-Table    Availability    Fare Chart    Map    Arr/Dep History    Trips    Gallery    ΣChains    X/O    Timeline    
Travel Time: 0h 39m    0 halts    Distance: 42 km    Avg Speed: 64 km/hr
Type: Mail/Express
Zone: CR/Central
Departs @ 22:50 (Avg 5m late)
Platform# 1
SMTWTFS
Chennai Central/MAS 
Arrives @ 23:29 (Avg 9m late)
Platform# ???
SMTWTFS
Tiruvallur/TRL 

0 halts. 21 intermediate Stations between Chennai Central and Tiruvallur

Show ALL intermediate Stations  

#CodeStation NameX/OArrivesAvgDepartsAvgHaltPFDay#KmSpeedElevZoneAddress
1MAS»Chennai Central (12)»  -22:50+5110.0649mSRChennai 600003, Tamil Nadu
2TRL•Tiruvallur (6)•  23:29+923:30+101m--141.75250mSRTiruvallur, Tamil Nadu
3AJJArakkonam Junction (8)  00:01+800:05+74m--268.74591mSRArakkonam, Tamil Nadu
4TRTTiruttani (3)  00:24+800:25+91m3282.96784mSRTiruttani, Tamil Nadu
5PUTPuttur (3)O  00:54+1200:55+141m12115.422149mSRPuttur, Andhra Pradesh
6RURenigunta Junction (5)  02:00-102:20+820m12138.863113mSCRChittoor District, Andhra Pradesh
7KOUKoduru (2)  02:59+1003:00+111m22179.769215mSCRKadapa (YSR District), Andhra Pradesh
8RJPRazampeta (2)  03:29+1003:30+101m22213.245144mSCRKadapa (YSR District), Andhra Pradesh
9NRENandalur  03:44+1103:45+111m--2223.850143mSCRRayalaseema Region, Andhra Pradesh
10HXKadapa (3)X  04:34+104:35+31m32264.375146mSCRCuddapah, Andhra Pradesh
11KKMKamalapuram (2)  04:54+804:55+91m--2288.066141mSCRKadapa (YSR District), Andhra Pradesh
12YAYerraguntla (2)  05:09+1305:10+141m--2303.470171mSCRKadapa / Cuddapah (YSR District), Andhra Pradesh
13MOOMuddanuru (3)  05:24+1705:25+181m--2319.636194mSCRKadapa (YSR District), Andhra Pradesh
14KDPKondapuram (2)  06:04+206:05+131m--2343.265214mSCRKadapa (YSR District), Andhra Pradesh
15TUTadipatri (3)06:31+1606:32+161m12371.367243mSCRAnantapuram Dist, Andhra Pradesh
16RLORayala Cheruvu (2)X  06:54+2206:55+231m12395.822292mSCRRayalacheruvu, Andhra Pradesh
17GYGooty Junction (2)  07:59+508:00+81m22419.457370mSCRNH 7 Anantapur District, Andhra Pradesh
18GTLGuntakal Junction (6)X08:30+1408:50+2720m52448.052453mSCRGuntakal. Tel: 08552-227131/32, Andhra Pradesh
19NRRNagarur (2)  09:39+2409:40+241m22490.530427mSCRKurnool, Andhra Pradesh
20ADAdoni (4)X  09:59+1810:00+191m42499.962420mSCRAdoni Tel: 08512-252368, Andhra Pradesh
21KGLKupgal (2)  10:14+2610:15+271m12514.391417mSCRKurnool Dist., Andhra Pradesh
22KOKosigi (2)  10:24+3210:25+331m22528.023379mSCRKurnool Dist., Andhra Pradesh
23MALMMantralayam Road (3)  10:59+1711:00+301m12541.248335mSCRKurnool Tel: 08512-259830, Andhra Pradesh
24MTUMatmari  11:14+2911:15+291m12552.427371mSCRRaichur, Karnataka
25RCRaichur Junction (3)  11:54+1311:55+161m22569.663406mSCRRaichur, Karnataka
26KSNKrishna (2)  12:19+1912:20+251m22594.871352mSCRDist Mahabubnagar, Andhra Pradesh
27SADPSaidapur (3)  12:37+2712:38+271m22615.077377mSCRYadgir Dist., Karnataka
28YGYadgir (3)  12:56+2912:57+391m22638.245369mSCRYadgir, Karnataka
29NWNalwar (2)  13:31+2813:32+461m12663.610406mSCRGulbarga, Karnataka
30WADIWadi Junction (4)  14:55-215:00+25m32677.250431mCRWadi, Karnataka
31SDBShahabad (3)  15:12+415:13+51m12687.352403mCRShahabad, Karnataka
32GRGulbarga (4)  15:44+015:45+41m12714.061458mCRGulbarga 585101, Karnataka
33GURGanagapur Road16:11+516:12+91m12740.543445mCRDist Gulbarga, Karnataka
34DUDDudhani (2)  16:44+816:45+151m12763.558457mCRSolapur, Maharashtra
35AKORAkalkot Road (2)  17:14+2317:15+261m12791.447456mCRDist Solapur, Maharashtra
36HGHotgi Junction (3)  17:41+2317:42+251m22811.732473mCRHotgi 413215, Maharashtra
37SURSolapur (5)18:10+1518:20+2210m32826.769461mCRSolapur 413001, Maharashtra
38MOMohol (2)XO  18:49+2418:50+261m12859.972458mCRSolapur, Maharashtra
39MAMadha (2)XO  19:15+2619:16+291m12889.848481mCRSolapur, Maharashtra
40KWVKurduvadi Junction (4)O  19:36+2919:37+321m22905.760516mCRKurduvadi Dist-Solapur, Maharashtra
41KEMKem (2)  19:55+3419:56+401m12923.854548mCRKem, Maharashtra
42JEURJeur (1)  20:14+3920:15+421m12939.956526mCRJeur, Maharashtra
43BGVNBhigwan (2)X  21:04+3421:05+351m12985.937509mCRDaund, Maharashtra
44DDDaund Junction (7)21:50+1621:55+245m621013.650521mCRNew Daund Dist. Pune 413801, Maharashtra
45PUNEPune Junction (6)23:25+623:40+1315m421089.240556mCRPune 411001, Maharashtra
46KKKhadki (3)  23:49+1823:50+181m221095.264562mCRPune 411003, Maharashtra
47LNLLonavala (3)  00:44+900:45+111m231152.835623mCRLonavala 410401, Maharashtra
48KJTKarjat Junction (4)X  01:34+1001:35+131m231181.55257mCRKarjat, Maharashtra
49KYNKalyan Junction (8)  02:29+802:30+101m731228.38710mCRKalyan 421301, Maharashtra
50TNAThane (10)  02:44+1702:45+221m631248.55010mCRThane, Maharashtra
51DRMumbai Dadar Central (8)  03:14+1203:15+181m631272.8177mCRMumbai 400014, Maharashtra
52CSTMMumbai CST (18)  03:45+4-1631281.4-10mCRMumbai 400001, Maharashtra
Scroll to Top
Scroll to Bottom